createdAt,value
2019-05-11T00:00:22.424Z,10.40
2019-05-11T00:02:50.975Z,10.50
2019-05-11T00:05:19.448Z,10.40
2019-05-11T00:07:48.091Z,10.40
2019-05-11T00:10:16.269Z,10.40
2019-05-11T00:12:44.345Z,10.60
2019-05-11T00:15:13.207Z,10.70
2019-05-11T00:17:41.271Z,10.70
2019-05-11T00:20:09.457Z,10.80
2019-05-11T00:22:37.701Z,10.80
2019-05-11T00:25:06.254Z,11.00
2019-05-11T00:27:34.342Z,11.00
2019-05-11T00:30:03.527Z,11.00
2019-05-11T00:32:31.827Z,11.00
2019-05-11T00:35:00.538Z,11.10
2019-05-11T00:37:28.741Z,11.10
2019-05-11T00:40:11.917Z,11.00
2019-05-11T00:42:28.169Z,11.10
2019-05-11T00:44:55.361Z,10.90
2019-05-11T00:47:22.410Z,11.00
2019-05-11T00:49:49.358Z,10.90
2019-05-11T00:52:17.495Z,11.00
2019-05-11T00:54:45.449Z,10.90
2019-05-11T00:57:13.489Z,11.10
2019-05-11T00:59:41.473Z,11.10
2019-05-11T01:02:09.551Z,11.30
2019-05-11T01:04:37.786Z,11.20
2019-05-11T01:07:05.916Z,11.40
2019-05-11T01:09:33.856Z,11.10
2019-05-11T01:12:02.335Z,11.20
2019-05-11T01:14:30.412Z,11.20
2019-05-11T01:16:58.384Z,11.30
2019-05-11T01:19:26.578Z,11.20
2019-05-11T01:21:54.548Z,11.10
2019-05-11T01:24:22.894Z,11.10
2019-05-11T01:26:51.059Z,11.10
2019-05-11T01:29:18.999Z,11.20
2019-05-11T01:31:46.995Z,11.20
2019-05-11T01:34:15.061Z,11.30
2019-05-11T01:36:43.187Z,11.20
2019-05-11T01:39:11.278Z,11.00
2019-05-11T01:41:39.343Z,11.00
2019-05-11T01:44:07.398Z,11.00
2019-05-11T01:46:35.568Z,11.00
2019-05-11T01:49:03.732Z,11.10
2019-05-11T01:51:31.699Z,11.10
2019-05-11T01:53:59.856Z,11.10
2019-05-11T01:56:28.317Z,10.90
2019-05-11T01:58:56.763Z,10.90
2019-05-11T02:01:25.558Z,10.90
2019-05-11T02:03:54.534Z,10.90
2019-05-11T02:06:21.682Z,10.90
2019-05-11T02:08:49.623Z,10.70
2019-05-11T02:11:17.935Z,10.80
2019-05-11T02:13:46.260Z,10.80
2019-05-11T02:16:14.339Z,10.90
2019-05-11T02:18:42.564Z,10.90
2019-05-11T02:21:10.811Z,10.90
2019-05-11T02:23:38.866Z,10.90
2019-05-11T02:26:06.815Z,10.70
2019-05-11T02:28:34.824Z,10.70
2019-05-11T02:31:03.113Z,10.70
2019-05-11T02:33:31.250Z,10.60
2019-05-11T02:35:59.276Z,10.40
2019-05-11T02:38:27.347Z,10.50
2019-05-11T02:40:55.562Z,10.60
2019-05-11T02:43:23.727Z,10.70
2019-05-11T02:45:51.879Z,10.80
2019-05-11T02:48:20.164Z,10.80
2019-05-11T02:50:49.227Z,10.60
2019-05-11T02:53:17.767Z,10.40
2019-05-11T02:55:47.421Z,10.30
2019-05-11T02:58:15.668Z,10.40
2019-05-11T03:00:44.573Z,10.40
2019-05-11T03:03:13.970Z,10.40
2019-05-11T03:05:41.152Z,10.40
2019-05-11T03:08:11.645Z,10.50
2019-05-11T03:10:39.883Z,10.60
2019-05-11T03:13:08.076Z,10.50
2019-05-11T03:15:36.215Z,10.50
2019-05-11T03:18:04.367Z,10.60
2019-05-11T03:20:32.572Z,10.70
2019-05-11T03:23:00.735Z,10.70
2019-05-11T03:25:28.950Z,10.40
2019-05-11T03:27:56.929Z,10.40
2019-05-11T03:30:25.013Z,10.20
2019-05-11T03:32:53.015Z,10.20
2019-05-11T03:35:23.041Z,10.30
2019-05-11T03:37:50.285Z,10.50
2019-05-11T03:40:18.848Z,10.70
2019-05-11T03:42:47.362Z,10.60
2019-05-11T03:45:15.836Z,10.50
2019-05-11T03:47:44.543Z,10.30
2019-05-11T03:50:12.554Z,10.30
2019-05-11T03:52:40.880Z,10.40
2019-05-11T03:55:09.507Z,10.50
2019-05-11T03:57:38.526Z,10.60
2019-05-11T04:00:07.572Z,10.70
2019-05-11T04:02:36.363Z,10.70
2019-05-11T04:05:05.180Z,10.60
2019-05-11T04:07:39.693Z,10.60
2019-05-11T04:10:08.232Z,10.50
2019-05-11T04:12:36.804Z,10.50
2019-05-11T04:15:05.420Z,10.40
2019-05-11T04:17:33.896Z,10.40
2019-05-11T04:20:02.136Z,10.60
2019-05-11T04:22:30.447Z,10.60
2019-05-11T04:24:58.699Z,10.50
2019-05-11T04:27:27.239Z,10.70
2019-05-11T04:29:55.987Z,10.50
2019-05-11T04:32:24.547Z,10.40
2019-05-11T04:34:52.995Z,10.50
2019-05-11T04:37:21.027Z,10.50
2019-05-11T04:39:49.429Z,10.60
2019-05-11T04:42:18.032Z,10.70
2019-05-11T04:44:47.202Z,10.60
2019-05-11T04:47:14.665Z,10.70
2019-05-11T04:49:43.534Z,10.70
2019-05-11T04:52:11.691Z,10.70
2019-05-11T04:54:40.340Z,10.60
2019-05-11T04:57:08.693Z,10.50
2019-05-11T04:59:37.465Z,10.50
2019-05-11T05:02:06.155Z,10.50
2019-05-11T05:04:35.081Z,10.50
2019-05-11T05:07:05.521Z,10.40
2019-05-11T05:09:35.880Z,10.40
2019-05-11T05:12:08.286Z,10.60
2019-05-11T05:14:33.380Z,10.50
2019-05-11T05:17:01.618Z,10.50
2019-05-11T05:19:29.602Z,10.40
2019-05-11T05:21:57.588Z,10.30
2019-05-11T05:24:25.622Z,10.30
2019-05-11T05:26:53.841Z,10.20
2019-05-11T05:29:21.871Z,10.20
2019-05-11T05:31:50.110Z,10.30
2019-05-11T05:34:18.527Z,10.30
2019-05-11T05:36:46.622Z,10.30
2019-05-11T05:39:14.595Z,10.40
2019-05-11T05:41:42.613Z,10.40
2019-05-11T05:44:10.710Z,10.30
2019-05-11T05:46:38.930Z,10.30
2019-05-11T05:49:07.119Z,10.30
2019-05-11T05:51:35.085Z,10.50
2019-05-11T05:54:03.366Z,10.60
2019-05-11T05:56:31.438Z,10.70
2019-05-11T05:58:59.676Z,10.70
2019-05-11T06:01:28.366Z,10.80
2019-05-11T06:03:56.602Z,10.60
2019-05-11T06:06:24.657Z,10.50
2019-05-11T06:08:52.744Z,10.60
2019-05-11T06:11:20.756Z,10.40
2019-05-11T06:13:49.172Z,10.40
2019-05-11T06:16:17.355Z,10.40
2019-05-11T06:18:45.512Z,10.50
2019-05-11T06:21:13.958Z,10.60
2019-05-11T06:23:41.913Z,10.50
2019-05-11T06:26:10.215Z,10.30
2019-05-11T06:28:38.440Z,10.30
2019-05-11T06:31:06.599Z,10.40
2019-05-11T06:33:34.681Z,10.30
2019-05-11T06:36:03.091Z,10.30
2019-05-11T06:38:31.068Z,10.40
2019-05-11T06:40:59.146Z,10.60
2019-05-11T06:43:27.134Z,10.60
2019-05-11T06:45:55.330Z,10.80
2019-05-11T06:48:23.625Z,10.90
2019-05-11T06:50:51.891Z,10.80
2019-05-11T06:53:20.163Z,10.80
2019-05-11T06:55:48.232Z,10.80
2019-05-11T06:58:16.519Z,10.70
2019-05-11T07:00:44.682Z,10.70
2019-05-11T07:03:20.779Z,10.70
2019-05-11T07:05:47.747Z,10.80
2019-05-11T07:08:14.950Z,10.80
2019-05-11T07:10:43.351Z,10.90
2019-05-11T07:13:17.076Z,10.80
2019-05-11T07:15:44.434Z,10.80
2019-05-11T07:18:37.777Z,10.90
2019-05-11T07:21:05.097Z,10.80
2019-05-11T07:23:46.848Z,11.00
2019-05-11T07:26:14.299Z,11.10
2019-05-11T07:28:41.803Z,11.20
2019-05-11T07:31:08.871Z,11.10
2019-05-11T07:33:37.961Z,11.00
2019-05-11T07:36:05.187Z,10.90
2019-05-11T07:38:32.386Z,11.00
2019-05-11T07:40:59.951Z,11.00
2019-05-11T07:43:28.736Z,11.10
2019-05-11T07:45:58.275Z,11.20
2019-05-11T07:48:27.641Z,11.30
2019-05-11T07:50:55.232Z,11.20
2019-05-11T07:53:22.740Z,11.20
2019-05-11T07:55:50.338Z,11.10
2019-05-11T07:58:20.220Z,11.10
2019-05-11T08:00:48.865Z,11.10
2019-05-11T08:03:18.122Z,11.30
2019-05-11T08:05:47.688Z,11.10
2019-05-11T08:08:18.083Z,11.10
2019-05-11T08:10:45.084Z,11.10
2019-05-11T08:13:12.483Z,11.00
2019-05-11T08:15:39.523Z,11.10
2019-05-11T08:18:08.511Z,11.10
2019-05-11T08:20:38.375Z,11.10
2019-05-11T08:23:05.541Z,11.00
2019-05-11T08:25:32.943Z,11.00
2019-05-11T08:28:00.238Z,11.10
2019-05-11T08:30:27.882Z,11.10
2019-05-11T08:32:54.943Z,11.20
2019-05-11T08:35:22.163Z,11.20
2019-05-11T08:37:49.134Z,11.10
2019-05-11T08:40:18.267Z,11.10
2019-05-11T08:42:48.223Z,11.10
2019-05-11T08:45:24.032Z,11.10
2019-05-11T08:47:48.498Z,11.10
2019-05-11T08:50:18.717Z,11.20
2019-05-11T08:52:48.037Z,11.30
2019-05-11T08:55:18.978Z,11.20
2019-05-11T08:57:48.060Z,11.20
2019-05-11T09:00:18.202Z,11.00
2019-05-11T09:02:50.247Z,11.10
2019-05-11T09:05:18.709Z,11.00
2019-05-11T09:07:48.408Z,11.10
2019-05-11T09:10:18.548Z,11.10
2019-05-11T09:12:48.852Z,11.10
2019-05-11T09:15:30.016Z,11.20
2019-05-11T09:17:48.783Z,11.00
2019-05-11T09:20:18.016Z,11.30
2019-05-11T09:22:48.510Z,11.10
2019-05-11T09:25:18.329Z,11.10
2019-05-11T09:27:48.290Z,11.00
2019-05-11T09:30:18.419Z,10.90
2019-05-11T09:32:47.752Z,11.00
2019-05-11T09:35:18.654Z,11.00
2019-05-11T09:37:48.254Z,10.90
2019-05-11T09:40:18.256Z,11.00
2019-05-11T09:42:47.889Z,11.20
2019-05-11T09:45:18.701Z,11.30
2019-05-11T09:47:47.729Z,11.30
2019-05-11T09:50:18.459Z,11.40
2019-05-11T09:52:48.840Z,11.30
2019-05-11T09:55:18.812Z,11.30
2019-05-11T09:57:48.670Z,11.40
2019-05-11T10:00:18.039Z,11.50
2019-05-11T10:02:48.554Z,11.60
2019-05-11T10:05:18.578Z,11.70
2019-05-11T10:07:48.518Z,11.70
2019-05-11T10:10:18.699Z,11.80
2019-05-11T10:12:48.582Z,11.90
2019-05-11T10:15:18.811Z,12.00
2019-05-11T10:17:48.298Z,12.00
2019-05-11T10:20:18.156Z,12.10
2019-05-11T10:22:48.658Z,12.00
2019-05-11T10:25:18.185Z,11.90
2019-05-11T10:27:48.847Z,11.80
2019-05-11T10:30:18.735Z,12.00
2019-05-11T10:32:48.475Z,11.80
2019-05-11T10:35:18.368Z,12.00
2019-05-11T10:37:47.814Z,12.10
2019-05-11T10:40:19.027Z,11.90
2019-05-11T10:42:48.316Z,12.00
2019-05-11T10:45:18.013Z,12.00
2019-05-11T10:47:48.718Z,12.00
2019-05-11T10:50:18.708Z,12.20
2019-05-11T10:52:48.414Z,12.20
2019-05-11T10:55:19.337Z,12.30
2019-05-11T10:57:48.725Z,12.40
2019-05-11T11:00:17.961Z,12.20
2019-05-11T11:02:47.740Z,12.40
2019-05-11T11:05:18.508Z,12.50
2019-05-11T11:07:48.398Z,12.40
2019-05-11T11:10:18.168Z,12.40
2019-05-11T11:12:48.755Z,12.50
2019-05-11T11:15:18.307Z,12.50
2019-05-11T11:17:48.560Z,12.40
2019-05-11T11:20:18.619Z,12.60
2019-05-11T11:22:48.169Z,12.50
2019-05-11T11:25:18.010Z,12.40
2019-05-11T11:27:48.420Z,12.40
2019-05-11T11:30:18.131Z,12.40
2019-05-11T11:32:48.301Z,12.30
2019-05-11T11:35:18.677Z,12.30
2019-05-11T11:37:47.848Z,12.50
2019-05-11T11:40:17.761Z,12.50
2019-05-11T11:42:47.845Z,12.50
2019-05-11T11:45:18.280Z,12.60
2019-05-11T11:47:49.065Z,12.60
2019-05-11T11:50:17.792Z,12.40
2019-05-11T11:52:47.721Z,12.20
2019-05-11T11:55:18.375Z,12.20
2019-05-11T11:57:48.468Z,12.10
2019-05-11T12:00:18.358Z,12.20
2019-05-11T12:02:48.551Z,12.10
2019-05-11T12:05:17.630Z,12.20
2019-05-11T12:07:46.116Z,12.00
2019-05-11T12:10:14.340Z,12.00
2019-05-11T12:12:42.684Z,12.10
2019-05-11T12:15:10.873Z,12.10
2019-05-11T12:17:38.869Z,12.20
2019-05-11T12:20:08.970Z,12.30
2019-05-11T12:22:38.757Z,12.00
2019-05-11T12:25:07.924Z,12.00
2019-05-11T12:27:38.280Z,12.10
2019-05-11T12:30:08.963Z,12.20
2019-05-11T12:32:44.364Z,12.50
2019-05-11T12:35:12.558Z,12.80
2019-05-11T12:37:40.574Z,13.00
2019-05-11T12:40:09.978Z,13.10
2019-05-11T12:42:38.353Z,13.20
2019-05-11T12:45:08.540Z,13.10
2019-05-11T12:47:38.512Z,13.10
2019-05-11T12:50:07.921Z,13.10
2019-05-11T12:52:35.333Z,13.10
2019-05-11T12:55:03.032Z,13.10
2019-05-11T12:57:30.518Z,13.10
2019-05-11T12:59:58.512Z,13.30
2019-05-11T13:02:27.936Z,13.20
2019-05-11T13:04:58.363Z,13.20
2019-05-11T13:07:28.293Z,13.20
2019-05-11T13:09:57.988Z,13.20
2019-05-11T13:12:27.958Z,13.30
2019-05-11T13:14:58.025Z,13.10
2019-05-11T13:17:34.961Z,13.20
2019-05-11T13:19:58.616Z,13.00
2019-05-11T13:22:29.023Z,13.00
2019-05-11T13:24:58.863Z,13.00
2019-05-11T13:27:28.363Z,12.80
2019-05-11T13:29:59.183Z,12.80
2019-05-11T13:32:28.249Z,13.00
2019-05-11T13:34:58.433Z,13.10
2019-05-11T13:37:28.336Z,13.10
2019-05-11T13:39:58.020Z,13.10
2019-05-11T13:42:27.745Z,13.10
2019-05-11T13:44:58.258Z,13.20
2019-05-11T13:47:48.531Z,13.40
2019-05-11T13:50:07.605Z,13.60
2019-05-11T13:52:35.751Z,13.90
2019-05-11T13:55:04.126Z,13.70
2019-05-11T13:57:32.538Z,13.90
2019-05-11T14:00:01.168Z,13.80
2019-05-11T14:02:29.516Z,13.80
2019-05-11T14:04:58.548Z,14.00
2019-05-11T14:07:27.565Z,14.00
2019-05-11T14:09:58.766Z,14.00
2019-05-11T14:12:28.441Z,14.00
2019-05-11T14:14:57.757Z,13.90
2019-05-11T14:17:28.738Z,13.90
2019-05-11T14:19:58.469Z,13.90
2019-05-11T14:22:28.191Z,13.80
2019-05-11T14:24:58.399Z,13.80
2019-05-11T14:27:28.302Z,14.00
2019-05-11T14:29:57.791Z,14.30
2019-05-11T14:32:27.849Z,14.60
2019-05-11T14:34:57.799Z,14.80
2019-05-11T14:37:28.414Z,15.00
2019-05-11T14:39:55.767Z,15.00
2019-05-11T14:42:23.387Z,15.00
2019-05-11T14:44:51.482Z,15.30
2019-05-11T14:47:19.726Z,15.10
2019-05-11T14:49:48.358Z,15.10
2019-05-11T14:52:18.852Z,14.90
2019-05-11T14:54:48.598Z,14.90
2019-05-11T14:57:18.626Z,14.60
2019-05-11T14:59:48.249Z,14.50
2019-05-11T15:02:34.415Z,14.50
2019-05-11T15:05:02.922Z,14.40
2019-05-11T15:07:31.386Z,14.50
2019-05-11T15:09:59.660Z,14.70
2019-05-11T15:12:28.724Z,14.90
2019-05-11T15:14:59.161Z,15.10
2019-05-11T15:17:28.300Z,15.20
2019-05-11T15:19:58.084Z,15.10
2019-05-11T15:22:28.566Z,15.00
2019-05-11T15:24:58.811Z,14.90
2019-05-11T15:27:28.894Z,14.70
2019-05-11T15:29:58.773Z,14.50
2019-05-11T15:32:28.528Z,14.50
2019-05-11T15:34:57.824Z,14.50
2019-05-11T15:37:28.290Z,14.20
2019-05-11T15:40:12.410Z,14.30
2019-05-11T15:42:41.720Z,14.20
2019-05-11T15:45:11.150Z,14.20
2019-05-11T15:47:39.307Z,14.20
2019-05-11T15:50:08.432Z,14.20
2019-05-11T15:52:39.908Z,14.10
2019-05-11T15:55:08.161Z,14.30
2019-05-11T15:57:38.681Z,14.30
2019-05-11T16:00:08.994Z,14.60
2019-05-11T16:02:37.824Z,14.50
2019-05-11T16:05:08.597Z,14.50
2019-05-11T16:07:38.440Z,14.50
2019-05-11T16:10:08.126Z,14.60
2019-05-11T16:12:38.851Z,14.60
2019-05-11T16:15:08.706Z,14.50
2019-05-11T16:17:40.047Z,14.30
2019-05-11T16:20:08.738Z,14.40
2019-05-11T16:22:38.515Z,14.60
2019-05-11T16:25:08.660Z,14.80
2019-05-11T16:27:37.954Z,14.60
2019-05-11T16:30:07.678Z,14.60
2019-05-11T16:32:38.515Z,14.80
2019-05-11T16:35:08.771Z,14.90
2019-05-11T16:37:38.001Z,15.20
2019-05-11T16:40:08.898Z,15.40
2019-05-11T16:42:38.683Z,15.40
2019-05-11T16:45:08.573Z,15.70
2019-05-11T16:47:38.905Z,15.60
2019-05-11T16:50:08.417Z,15.60
2019-05-11T16:52:38.662Z,15.70
2019-05-11T16:55:07.902Z,15.60
2019-05-11T16:57:38.208Z,15.40
2019-05-11T17:00:08.845Z,15.50
2019-05-11T17:02:38.217Z,15.40
2019-05-11T17:05:07.663Z,15.40
2019-05-11T17:07:37.665Z,15.70
2019-05-11T17:10:08.526Z,15.60
2019-05-11T17:12:38.574Z,15.90
2019-05-11T17:15:08.813Z,15.70
2019-05-11T17:17:37.654Z,15.30
2019-05-11T17:20:07.904Z,15.30
2019-05-11T17:22:38.741Z,15.40
2019-05-11T17:25:08.601Z,15.00
2019-05-11T17:27:37.688Z,15.00
2019-05-11T17:30:08.437Z,14.80
2019-05-11T17:32:38.343Z,14.80
2019-05-11T17:35:08.466Z,14.80
2019-05-11T17:37:38.131Z,14.70
2019-05-11T17:40:09.017Z,14.50
2019-05-11T17:42:38.001Z,14.60
2019-05-11T17:45:08.065Z,14.50
2019-05-11T17:47:38.858Z,14.60
2019-05-11T17:50:08.123Z,14.60
2019-05-11T17:52:38.438Z,14.50
2019-05-11T17:55:07.043Z,14.60
2019-05-11T17:57:35.623Z,14.70
2019-05-11T18:00:04.974Z,14.70
2019-05-11T18:02:33.324Z,14.50
2019-05-11T18:05:01.912Z,14.40
2019-05-11T18:07:31.223Z,14.40
2019-05-11T18:09:59.526Z,14.30
2019-05-11T18:12:29.146Z,14.20
2019-05-11T18:14:58.556Z,14.10
2019-05-11T18:17:26.846Z,14.20
2019-05-11T18:19:59.243Z,14.00
2019-05-11T18:22:25.624Z,14.10
2019-05-11T18:24:53.929Z,14.10
2019-05-11T18:27:24.479Z,14.10
2019-05-11T18:29:52.865Z,14.10
2019-05-11T18:32:21.313Z,14.20
2019-05-11T18:34:48.540Z,14.10
2019-05-11T18:37:18.697Z,14.00
2019-05-11T18:39:48.468Z,14.00
2019-05-11T18:42:18.546Z,13.80
2019-05-11T18:44:48.258Z,13.70
2019-05-11T18:47:18.413Z,13.80
2019-05-11T18:49:48.426Z,13.80
2019-05-11T18:52:18.697Z,13.90
2019-05-11T18:54:47.840Z,13.90
2019-05-11T18:57:18.608Z,13.70
2019-05-11T18:59:48.412Z,13.40
2019-05-11T19:02:16.594Z,13.30
2019-05-11T19:04:45.029Z,13.00
2019-05-11T19:07:17.029Z,12.90
2019-05-11T19:09:43.767Z,12.90
2019-05-11T19:12:11.942Z,12.90
2019-05-11T19:14:40.172Z,12.90
2019-05-11T19:17:08.495Z,12.70
2019-05-11T19:19:38.027Z,12.60
2019-05-11T19:22:08.785Z,12.50
2019-05-11T19:24:38.337Z,12.50
2019-05-11T19:27:08.097Z,12.40
2019-05-11T19:29:37.900Z,12.20
2019-05-11T19:32:10.785Z,12.00
2019-05-11T19:34:38.788Z,11.90
2019-05-11T19:37:08.612Z,12.00
2019-05-11T19:39:38.416Z,11.90
2019-05-11T19:42:07.875Z,12.00
2019-05-11T19:44:38.447Z,11.90
2019-05-11T19:47:08.879Z,11.80
2019-05-11T19:49:38.434Z,11.90
2019-05-11T19:52:08.513Z,11.70
2019-05-11T19:54:38.165Z,11.50
2019-05-11T19:57:08.337Z,11.60
2019-05-11T19:59:38.755Z,11.50
2019-05-11T20:02:08.398Z,11.40
2019-05-11T20:04:38.750Z,11.40
2019-05-11T20:07:08.771Z,11.30
2019-05-11T20:09:38.722Z,11.30
2019-05-11T20:12:06.961Z,11.30
2019-05-11T20:14:35.023Z,11.30
2019-05-11T20:17:03.266Z,11.30
2019-05-11T20:19:31.814Z,11.10
2019-05-11T20:22:00.070Z,11.10
2019-05-11T20:24:28.574Z,11.10
2019-05-11T20:26:56.798Z,11.00
2019-05-11T20:29:25.041Z,10.90
2019-05-11T20:31:53.367Z,11.00
2019-05-11T20:34:22.372Z,10.70
2019-05-11T20:36:50.676Z,10.80
2019-05-11T20:39:19.134Z,10.70
2019-05-11T20:41:47.794Z,10.50
2019-05-11T20:44:17.970Z,10.50
2019-05-11T20:46:48.505Z,10.60
2019-05-11T20:49:15.257Z,10.40
2019-05-11T20:51:42.218Z,10.40
2019-05-11T20:54:10.180Z,10.20
2019-05-11T20:56:38.828Z,10.20
2019-05-11T20:59:07.958Z,10.30
2019-05-11T21:01:38.554Z,10.20
2019-05-11T21:04:05.269Z,10.00
2019-05-11T21:06:32.419Z,10.00
2019-05-11T21:09:00.652Z,10.00
2019-05-11T21:11:28.848Z,10.00
2019-05-11T21:13:57.305Z,10.10
2019-05-11T21:16:25.351Z,10.00
2019-05-11T21:18:53.363Z,10.00
2019-05-11T21:21:21.558Z,9.80
2019-05-11T21:23:49.661Z,9.80
2019-05-11T21:26:18.857Z,9.80
2019-05-11T21:28:48.685Z,9.70
2019-05-11T21:31:18.610Z,9.70
2019-05-11T21:33:46.840Z,9.70
2019-05-11T21:36:14.913Z,9.80
2019-05-11T21:38:43.474Z,9.80
2019-05-11T21:41:11.426Z,9.70
2019-05-11T21:43:39.494Z,9.70
2019-05-11T21:46:08.208Z,9.80
2019-05-11T21:48:38.468Z,9.90
2019-05-11T21:51:08.610Z,9.70
2019-05-11T21:53:38.152Z,9.70
2019-05-11T21:56:08.074Z,9.70
2019-05-11T21:58:37.766Z,9.80
2019-05-11T22:01:06.273Z,9.70
2019-05-11T22:03:34.544Z,9.70
2019-05-11T22:06:02.620Z,9.70
2019-05-11T22:08:30.697Z,9.60
2019-05-11T22:11:00.045Z,9.50
2019-05-11T22:13:28.793Z,9.70
2019-05-11T22:15:58.029Z,9.50
2019-05-11T22:18:31.046Z,9.60
2019-05-11T22:20:58.010Z,9.50
2019-05-11T22:23:28.109Z,9.60
2019-05-11T22:25:58.540Z,9.60
2019-05-11T22:28:28.247Z,9.40
2019-05-11T22:30:55.714Z,9.40
2019-05-11T22:33:23.781Z,9.50
2019-05-11T22:35:51.754Z,9.50
2019-05-11T22:38:19.690Z,9.40
2019-05-11T22:40:48.777Z,9.30
2019-05-11T22:43:18.189Z,9.20
2019-05-11T22:45:48.514Z,9.10
2019-05-11T22:48:16.262Z,9.10
2019-05-11T22:50:44.263Z,8.90
2019-05-11T22:53:12.230Z,8.90
2019-05-11T22:55:40.310Z,8.80
2019-05-11T22:58:08.680Z,8.80
2019-05-11T23:00:41.881Z,8.80
2019-05-11T23:03:10.840Z,8.80
2019-05-11T23:05:39.894Z,8.80
2019-05-11T23:08:08.239Z,8.70
2019-05-11T23:10:38.564Z,8.60
2019-05-11T23:13:10.719Z,8.60
2019-05-11T23:15:40.110Z,8.60
2019-05-11T23:18:08.631Z,8.50
2019-05-11T23:20:38.591Z,8.50
2019-05-11T23:23:08.723Z,8.50
2019-05-11T23:25:37.311Z,8.40
2019-05-11T23:28:05.606Z,8.50
2019-05-11T23:30:34.155Z,8.50
2019-05-11T23:33:02.502Z,8.50
2019-05-11T23:35:31.479Z,8.50
2019-05-11T23:37:59.807Z,8.40
2019-05-11T23:40:28.442Z,8.40
2019-05-11T23:42:57.899Z,8.40
2019-05-11T23:45:27.984Z,8.40
2019-05-11T23:47:58.634Z,8.30
2019-05-11T23:50:28.096Z,8.50
2019-05-11T23:53:06.051Z,8.40
2019-05-11T23:55:28.846Z,8.30
2019-05-11T23:57:57.674Z,8.30
